sensor_id;sensor_type;location;lat;lon;timestamp;P1;durP1;ratioP1;P2;durP2;ratioP2
16288;SDS011;26089;43.538;5.250;2022-08-11T00:00:24;7.18;;;6.50;;
16288;SDS011;26089;43.538;5.250;2022-08-11T00:03:02;7.75;;;6.68;;
16288;SDS011;26089;43.538;5.250;2022-08-11T00:05:32;7.00;;;6.40;;
16288;SDS011;26089;43.538;5.250;2022-08-11T00:08:08;7.05;;;6.45;;
16288;SDS011;26089;43.538;5.250;2022-08-11T00:10:36;7.43;;;6.65;;
16288;SDS011;26089;43.538;5.250;2022-08-11T00:13:04;7.30;;;6.70;;
16288;SDS011;26089;43.538;5.250;2022-08-11T00:15:38;6.88;;;6.38;;
16288;SDS011;26089;43.538;5.250;2022-08-11T00:18:07;6.80;;;6.20;;
16288;SDS011;26089;43.538;5.250;2022-08-11T00:20:35;6.88;;;6.30;;
16288;SDS011;26089;43.538;5.250;2022-08-11T00:23:07;7.13;;;6.45;;
16288;SDS011;26089;43.538;5.250;2022-08-11T00:25:36;6.90;;;6.20;;
16288;SDS011;26089;43.538;5.250;2022-08-11T00:30:53;7.40;;;6.43;;
16288;SDS011;26089;43.538;5.250;2022-08-11T00:33:22;6.97;;;6.38;;
16288;SDS011;26089;43.538;5.250;2022-08-11T00:35:56;7.05;;;6.35;;
16288;SDS011;26089;43.538;5.250;2022-08-11T00:38:28;7.35;;;6.75;;
16288;SDS011;26089;43.538;5.250;2022-08-11T00:41:00;7.40;;;6.80;;
16288;SDS011;26089;43.538;5.250;2022-08-11T00:43:40;7.10;;;6.50;;
16288;SDS011;26089;43.538;5.250;2022-08-11T00:46:20;7.20;;;6.60;;
16288;SDS011;26089;43.538;5.250;2022-08-11T00:48:59;7.50;;;6.80;;
16288;SDS011;26089;43.538;5.250;2022-08-11T00:51:49;7.32;;;6.28;;
16288;SDS011;26089;43.538;5.250;2022-08-11T00:54:27;7.10;;;6.40;;
16288;SDS011;26089;43.538;5.250;2022-08-11T00:57:28;6.95;;;6.35;;
16288;SDS011;26089;43.538;5.250;2022-08-11T01:00:27;7.32;;;6.70;;
16288;SDS011;26089;43.538;5.250;2022-08-11T01:03:07;6.28;;;5.78;;
16288;SDS011;26089;43.538;5.250;2022-08-11T01:05:48;6.97;;;6.25;;
16288;SDS011;26089;43.538;5.250;2022-08-11T01:17:41;6.97;;;6.40;;
16288;SDS011;26089;43.538;5.250;2022-08-11T01:20:40;7.73;;;6.37;;
16288;SDS011;26089;43.538;5.250;2022-08-11T01:23:34;8.13;;;6.53;;
16288;SDS011;26089;43.538;5.250;2022-08-11T01:26:39;7.35;;;6.22;;
16288;SDS011;26089;43.538;5.250;2022-08-11T01:29:35;8.52;;;6.47;;
16288;SDS011;26089;43.538;5.250;2022-08-11T01:32:36;6.95;;;6.45;;
16288;SDS011;26089;43.538;5.250;2022-08-11T01:35:47;7.20;;;6.60;;
16288;SDS011;26089;43.538;5.250;2022-08-11T01:38:54;8.55;;;7.20;;
16288;SDS011;26089;43.538;5.250;2022-08-11T01:41:41;6.80;;;6.30;;
16288;SDS011;26089;43.538;5.250;2022-08-11T01:47:44;6.95;;;6.38;;
16288;SDS011;26089;43.538;5.250;2022-08-11T01:50:24;7.75;;;6.68;;
16288;SDS011;26089;43.538;5.250;2022-08-11T01:53:11;7.30;;;6.60;;
16288;SDS011;26089;43.538;5.250;2022-08-11T01:55:51;7.87;;;7.07;;
16288;SDS011;26089;43.538;5.250;2022-08-11T01:58:28;7.45;;;6.78;;
16288;SDS011;26089;43.538;5.250;2022-08-11T02:01:09;7.77;;;7.03;;
16288;SDS011;26089;43.538;5.250;2022-08-11T02:03:48;7.23;;;6.63;;
16288;SDS011;26089;43.538;5.250;2022-08-11T02:06:21;7.28;;;6.57;;
16288;SDS011;26089;43.538;5.250;2022-08-11T02:09:23;6.88;;;6.38;;
16288;SDS011;26089;43.538;5.250;2022-08-11T02:12:02;6.97;;;6.37;;
16288;SDS011;26089;43.538;5.250;2022-08-11T02:14:38;7.17;;;6.50;;
16288;SDS011;26089;43.538;5.250;2022-08-11T02:17:12;7.10;;;6.45;;
16288;SDS011;26089;43.538;5.250;2022-08-11T02:19:48;7.20;;;6.60;;
16288;SDS011;26089;43.538;5.250;2022-08-11T02:22:41;6.55;;;5.97;;
16288;SDS011;26089;43.538;5.250;2022-08-11T02:25:35;7.45;;;6.85;;
16288;SDS011;26089;43.538;5.250;2022-08-11T02:28:06;7.00;;;6.10;;
16288;SDS011;26089;43.538;5.250;2022-08-11T02:30:38;7.50;;;6.85;;
16288;SDS011;26089;43.538;5.250;2022-08-11T02:33:42;7.23;;;6.53;;
16288;SDS011;26089;43.538;5.250;2022-08-11T02:39:02;7.25;;;6.55;;
16288;SDS011;26089;43.538;5.250;2022-08-11T02:41:40;6.78;;;6.05;;
16288;SDS011;26089;43.538;5.250;2022-08-11T02:44:33;7.57;;;6.97;;
16288;SDS011;26089;43.538;5.250;2022-08-11T02:47:08;7.13;;;6.47;;
16288;SDS011;26089;43.538;5.250;2022-08-11T02:49:46;7.00;;;6.40;;
16288;SDS011;26089;43.538;5.250;2022-08-11T02:52:21;7.23;;;6.53;;
16288;SDS011;26089;43.538;5.250;2022-08-11T02:54:58;7.53;;;6.83;;
16288;SDS011;26089;43.538;5.250;2022-08-11T02:57:37;7.00;;;6.30;;
16288;SDS011;26089;43.538;5.250;2022-08-11T03:00:09;8.20;;;6.80;;
16288;SDS011;26089;43.538;5.250;2022-08-11T03:02:56;6.87;;;6.37;;
16288;SDS011;26089;43.538;5.250;2022-08-11T03:05:41;6.93;;;5.97;;
16288;SDS011;26089;43.538;5.250;2022-08-11T03:08:24;7.00;;;6.07;;
16288;SDS011;26089;43.538;5.250;2022-08-11T03:11:03;6.22;;;5.63;;
16288;SDS011;26089;43.538;5.250;2022-08-11T03:13:55;6.37;;;5.93;;
16288;SDS011;26089;43.538;5.250;2022-08-11T03:16:51;6.00;;;5.47;;
16288;SDS011;26089;43.538;5.250;2022-08-11T03:19:27;6.35;;;5.70;;
16288;SDS011;26089;43.538;5.250;2022-08-11T03:22:02;6.17;;;5.77;;
16288;SDS011;26089;43.538;5.250;2022-08-11T03:24:48;6.03;;;5.43;;
16288;SDS011;26089;43.538;5.250;2022-08-11T03:27:26;6.67;;;5.83;;
16288;SDS011;26089;43.538;5.250;2022-08-11T03:30:03;8.50;;;5.60;;
16288;SDS011;26089;43.538;5.250;2022-08-11T03:32:35;5.93;;;5.43;;
16288;SDS011;26089;43.538;5.250;2022-08-11T03:35:09;8.67;;;5.40;;
16288;SDS011;26089;43.538;5.250;2022-08-11T03:37:45;7.80;;;5.60;;
16288;SDS011;26089;43.538;5.250;2022-08-11T03:40:32;6.17;;;5.67;;
16288;SDS011;26089;43.538;5.250;2022-08-11T03:43:36;6.30;;;5.70;;
16288;SDS011;26089;43.538;5.250;2022-08-11T03:46:22;6.23;;;5.67;;
16288;SDS011;26089;43.538;5.250;2022-08-11T03:49:00;6.43;;;5.90;;
16288;SDS011;26089;43.538;5.250;2022-08-11T03:51:44;5.73;;;5.23;;
16288;SDS011;26089;43.538;5.250;2022-08-11T03:54:21;6.23;;;5.63;;
16288;SDS011;26089;43.538;5.250;2022-08-11T04:00:10;7.07;;;5.60;;
16288;SDS011;26089;43.538;5.250;2022-08-11T04:03:03;6.50;;;5.90;;
16288;SDS011;26089;43.538;5.250;2022-08-11T04:12:32;6.17;;;5.70;;
16288;SDS011;26089;43.538;5.250;2022-08-11T04:15:44;6.23;;;5.73;;
16288;SDS011;26089;43.538;5.250;2022-08-11T04:21:50;6.27;;;5.70;;
16288;SDS011;26089;43.538;5.250;2022-08-11T04:24:47;5.23;;;4.83;;
16288;SDS011;26089;43.538;5.250;2022-08-11T04:27:48;6.10;;;5.60;;
16288;SDS011;26089;43.538;5.250;2022-08-11T04:30:26;6.30;;;5.80;;
16288;SDS011;26089;43.538;5.250;2022-08-11T04:36:01;5.77;;;5.27;;
16288;SDS011;26089;43.538;5.250;2022-08-11T04:39:13;5.53;;;5.10;;
16288;SDS011;26089;43.538;5.250;2022-08-11T04:41:52;5.77;;;5.27;;
16288;SDS011;26089;43.538;5.250;2022-08-11T04:45:10;7.83;;;5.67;;
16288;SDS011;26089;43.538;5.250;2022-08-11T04:48:15;5.73;;;5.30;;
16288;SDS011;26089;43.538;5.250;2022-08-11T04:51:31;5.87;;;5.43;;
16288;SDS011;26089;43.538;5.250;2022-08-11T04:54:38;5.67;;;5.17;;
16288;SDS011;26089;43.538;5.250;2022-08-11T04:57:34;7.60;;;5.70;;
16288;SDS011;26089;43.538;5.250;2022-08-11T05:00:31;6.20;;;5.60;;
16288;SDS011;26089;43.538;5.250;2022-08-11T05:03:42;6.13;;;5.40;;
16288;SDS011;26089;43.538;5.250;2022-08-11T05:06:49;8.27;;;5.37;;
16288;SDS011;26089;43.538;5.250;2022-08-11T05:09:51;5.60;;;5.10;;
16288;SDS011;26089;43.538;5.250;2022-08-11T05:12:40;7.50;;;5.90;;
16288;SDS011;26089;43.538;5.250;2022-08-11T05:15:11;9.03;;;5.33;;
16288;SDS011;26089;43.538;5.250;2022-08-11T05:17:59;19.13;;;6.57;;
16288;SDS011;26089;43.538;5.250;2022-08-11T05:20:50;5.60;;;5.10;;
16288;SDS011;26089;43.538;5.250;2022-08-11T05:23:38;6.47;;;5.97;;
16288;SDS011;26089;43.538;5.250;2022-08-11T05:26:26;5.80;;;5.37;;
16288;SDS011;26089;43.538;5.250;2022-08-11T05:29:26;6.40;;;5.13;;
16288;SDS011;26089;43.538;5.250;2022-08-11T05:32:21;6.40;;;5.03;;
16288;SDS011;26089;43.538;5.250;2022-08-11T05:35:06;5.97;;;5.40;;
16288;SDS011;26089;43.538;5.250;2022-08-11T05:37:37;5.63;;;5.13;;
16288;SDS011;26089;43.538;5.250;2022-08-11T05:40:26;5.80;;;5.27;;
16288;SDS011;26089;43.538;5.250;2022-08-11T05:43:13;5.77;;;5.37;;
16288;SDS011;26089;43.538;5.250;2022-08-11T05:45:58;5.33;;;4.90;;
16288;SDS011;26089;43.538;5.250;2022-08-11T05:48:44;5.43;;;4.93;;
16288;SDS011;26089;43.538;5.250;2022-08-11T05:51:33;6.30;;;5.70;;
16288;SDS011;26089;43.538;5.250;2022-08-11T05:54:19;6.37;;;5.77;;
16288;SDS011;26089;43.538;5.250;2022-08-11T05:57:04;7.00;;;5.77;;
16288;SDS011;26089;43.538;5.250;2022-08-11T05:59:34;5.77;;;5.30;;
16288;SDS011;26089;43.538;5.250;2022-08-11T06:02:02;6.53;;;5.80;;
16288;SDS011;26089;43.538;5.250;2022-08-11T06:04:32;6.50;;;5.90;;
16288;SDS011;26089;43.538;5.250;2022-08-11T06:07:01;5.90;;;5.40;;
16288;SDS011;26089;43.538;5.250;2022-08-11T06:09:33;5.53;;;5.10;;
16288;SDS011;26089;43.538;5.250;2022-08-11T06:12:02;5.50;;;4.97;;
16288;SDS011;26089;43.538;5.250;2022-08-11T06:14:30;7.70;;;5.53;;
16288;SDS011;26089;43.538;5.250;2022-08-11T06:17:02;6.20;;;5.20;;
16288;SDS011;26089;43.538;5.250;2022-08-11T06:19:34;6.50;;;5.80;;
16288;SDS011;26089;43.538;5.250;2022-08-11T06:22:05;5.68;;;5.18;;
16288;SDS011;26089;43.538;5.250;2022-08-11T06:24:35;6.60;;;5.38;;
16288;SDS011;26089;43.538;5.250;2022-08-11T06:27:05;5.47;;;5.07;;
16288;SDS011;26089;43.538;5.250;2022-08-11T06:29:33;5.63;;;5.13;;
16288;SDS011;26089;43.538;5.250;2022-08-11T06:32:07;5.60;;;5.20;;
16288;SDS011;26089;43.538;5.250;2022-08-11T06:34:46;5.93;;;5.43;;
16288;SDS011;26089;43.538;5.250;2022-08-11T06:37:29;5.75;;;5.28;;
16288;SDS011;26089;43.538;5.250;2022-08-11T06:40:08;6.63;;;5.03;;
16288;SDS011;26089;43.538;5.250;2022-08-11T06:42:43;5.90;;;5.28;;
16288;SDS011;26089;43.538;5.250;2022-08-11T06:45:22;5.20;;;4.70;;
16288;SDS011;26089;43.538;5.250;2022-08-11T06:47:54;5.25;;;4.78;;
16288;SDS011;26089;43.538;5.250;2022-08-11T06:50:25;5.50;;;5.10;;
16288;SDS011;26089;43.538;5.250;2022-08-11T06:53:10;5.20;;;4.80;;
16288;SDS011;26089;43.538;5.250;2022-08-11T06:55:41;5.63;;;5.03;;
16288;SDS011;26089;43.538;5.250;2022-08-11T06:58:28;5.70;;;5.22;;
16288;SDS011;26089;43.538;5.250;2022-08-11T07:01:16;5.70;;;5.20;;
16288;SDS011;26089;43.538;5.250;2022-08-11T07:03:56;5.93;;;5.20;;
16288;SDS011;26089;43.538;5.250;2022-08-11T07:06:38;6.30;;;4.95;;
16288;SDS011;26089;43.538;5.250;2022-08-11T07:09:41;6.25;;;5.07;;
16288;SDS011;26089;43.538;5.250;2022-08-11T07:12:41;5.25;;;4.75;;
16288;SDS011;26089;43.538;5.250;2022-08-11T07:15:31;6.35;;;4.75;;
16288;SDS011;26089;43.538;5.250;2022-08-11T07:18:09;5.65;;;4.75;;
16288;SDS011;26089;43.538;5.250;2022-08-11T07:21:06;5.18;;;4.68;;
16288;SDS011;26089;43.538;5.250;2022-08-11T07:23:54;6.07;;;5.22;;
16288;SDS011;26089;43.538;5.250;2022-08-11T07:26:42;6.15;;;5.35;;
16288;SDS011;26089;43.538;5.250;2022-08-11T07:29:31;5.32;;;4.82;;
16288;SDS011;26089;43.538;5.250;2022-08-11T07:32:01;5.85;;;4.80;;
16288;SDS011;26089;43.538;5.250;2022-08-11T07:34:41;4.80;;;4.40;;
16288;SDS011;26089;43.538;5.250;2022-08-11T07:37:15;5.15;;;4.55;;
16288;SDS011;26089;43.538;5.250;2022-08-11T07:39:45;5.95;;;4.78;;
16288;SDS011;26089;43.538;5.250;2022-08-11T07:42:14;6.47;;;4.68;;
16288;SDS011;26089;43.538;5.250;2022-08-11T07:44:42;7.63;;;4.93;;
16288;SDS011;26089;43.538;5.250;2022-08-11T07:47:29;6.72;;;4.50;;
16288;SDS011;26089;43.538;5.250;2022-08-11T07:50:14;5.40;;;4.90;;
16288;SDS011;26089;43.538;5.250;2022-08-11T07:53:01;5.70;;;4.68;;
16288;SDS011;26089;43.538;5.250;2022-08-11T07:55:29;5.55;;;5.00;;
16288;SDS011;26089;43.538;5.250;2022-08-11T07:57:58;5.90;;;5.15;;
16288;SDS011;26089;43.538;5.250;2022-08-11T08:00:43;5.35;;;4.72;;
16288;SDS011;26089;43.538;5.250;2022-08-11T08:03:30;5.72;;;5.20;;
16288;SDS011;26089;43.538;5.250;2022-08-11T08:06:16;6.43;;;5.18;;
16288;SDS011;26089;43.538;5.250;2022-08-11T08:09:02;6.10;;;5.50;;
16288;SDS011;26089;43.538;5.250;2022-08-11T08:11:49;6.25;;;5.75;;
16288;SDS011;26089;43.538;5.250;2022-08-11T08:14:34;7.65;;;5.28;;
16288;SDS011;26089;43.538;5.250;2022-08-11T08:17:19;7.47;;;5.15;;
16288;SDS011;26089;43.538;5.250;2022-08-11T08:20:05;6.20;;;4.95;;
16288;SDS011;26089;43.538;5.250;2022-08-11T08:22:37;8.70;;;5.18;;
16288;SDS011;26089;43.538;5.250;2022-08-11T08:25:06;5.40;;;5.00;;
16288;SDS011;26089;43.538;5.250;2022-08-11T08:27:34;6.35;;;4.90;;
16288;SDS011;26089;43.538;5.250;2022-08-11T08:30:04;5.32;;;4.82;;
16288;SDS011;26089;43.538;5.250;2022-08-11T08:32:49;6.65;;;4.57;;
16288;SDS011;26089;43.538;5.250;2022-08-11T08:35:18;5.40;;;4.70;;
16288;SDS011;26089;43.538;5.250;2022-08-11T08:37:45;4.55;;;4.15;;
16288;SDS011;26089;43.538;5.250;2022-08-11T08:40:16;5.10;;;4.30;;
16288;SDS011;26089;43.538;5.250;2022-08-11T08:42:45;4.70;;;4.28;;
16288;SDS011;26089;43.538;5.250;2022-08-11T08:45:17;4.50;;;4.10;;
16288;SDS011;26089;43.538;5.250;2022-08-11T08:47:46;6.43;;;4.47;;
16288;SDS011;26089;43.538;5.250;2022-08-11T08:50:19;4.03;;;3.63;;
16288;SDS011;26089;43.538;5.250;2022-08-11T08:53:08;4.40;;;4.00;;
16288;SDS011;26089;43.538;5.250;2022-08-11T08:55:37;4.75;;;4.03;;
16288;SDS011;26089;43.538;5.250;2022-08-11T08:58:06;5.03;;;4.50;;
16288;SDS011;26089;43.538;5.250;2022-08-11T09:00:36;4.45;;;4.05;;
16288;SDS011;26089;43.538;5.250;2022-08-11T09:03:05;7.13;;;4.32;;
16288;SDS011;26089;43.538;5.250;2022-08-11T09:05:32;4.55;;;4.18;;
16288;SDS011;26089;43.538;5.250;2022-08-11T09:08:00;6.15;;;4.35;;
16288;SDS011;26089;43.538;5.250;2022-08-11T09:10:27;4.40;;;4.00;;
16288;SDS011;26089;43.538;5.250;2022-08-11T09:12:57;4.78;;;4.35;;
16288;SDS011;26089;43.538;5.250;2022-08-11T09:15:26;4.57;;;3.72;;
16288;SDS011;26089;43.538;5.250;2022-08-11T09:17:54;5.57;;;4.78;;
16288;SDS011;26089;43.538;5.250;2022-08-11T09:20:30;5.07;;;4.57;;
16288;SDS011;26089;43.538;5.250;2022-08-11T09:23:00;6.80;;;4.05;;
16288;SDS011;26089;43.538;5.250;2022-08-11T09:25:47;4.80;;;4.40;;
16288;SDS011;26089;43.538;5.250;2022-08-11T09:28:36;8.40;;;4.70;;
16288;SDS011;26089;43.538;5.250;2022-08-11T09:31:04;4.68;;;4.20;;
16288;SDS011;26089;43.538;5.250;2022-08-11T09:33:32;5.65;;;4.47;;
16288;SDS011;26089;43.538;5.250;2022-08-11T09:36:00;5.43;;;4.55;;
16288;SDS011;26089;43.538;5.250;2022-08-11T09:38:49;5.65;;;4.38;;
16288;SDS011;26089;43.538;5.250;2022-08-11T09:41:34;8.55;;;4.30;;
16288;SDS011;26089;43.538;5.250;2022-08-11T09:44:05;4.82;;;4.30;;
16288;SDS011;26089;43.538;5.250;2022-08-11T09:46:51;5.78;;;4.43;;
16288;SDS011;26089;43.538;5.250;2022-08-11T09:49:23;6.72;;;4.38;;
16288;SDS011;26089;43.538;5.250;2022-08-11T09:51:51;7.57;;;4.65;;
16288;SDS011;26089;43.538;5.250;2022-08-11T09:54:20;4.88;;;4.30;;
16288;SDS011;26089;43.538;5.250;2022-08-11T09:56:50;5.50;;;4.97;;
16288;SDS011;26089;43.538;5.250;2022-08-11T09:59:37;6.05;;;5.30;;
16288;SDS011;26089;43.538;5.250;2022-08-11T10:02:06;7.97;;;4.50;;
16288;SDS011;26089;43.538;5.250;2022-08-11T10:04:37;5.10;;;4.68;;
16288;SDS011;26089;43.538;5.250;2022-08-11T10:07:09;5.22;;;4.68;;
16288;SDS011;26089;43.538;5.250;2022-08-11T10:09:41;5.00;;;4.60;;
16288;SDS011;26089;43.538;5.250;2022-08-11T10:12:13;5.32;;;4.78;;
16288;SDS011;26089;43.538;5.250;2022-08-11T10:14:47;5.68;;;5.10;;
16288;SDS011;26089;43.538;5.250;2022-08-11T10:17:42;5.55;;;4.97;;
16288;SDS011;26089;43.538;5.250;2022-08-11T10:20:26;5.50;;;5.00;;
16288;SDS011;26089;43.538;5.250;2022-08-11T10:22:53;6.00;;;5.38;;
16288;SDS011;26089;43.538;5.250;2022-08-11T10:25:38;6.10;;;5.43;;
16288;SDS011;26089;43.538;5.250;2022-08-11T10:28:24;7.03;;;5.18;;
16288;SDS011;26089;43.538;5.250;2022-08-11T10:30:53;5.88;;;5.15;;
16288;SDS011;26089;43.538;5.250;2022-08-11T10:33:39;5.35;;;4.88;;
16288;SDS011;26089;43.538;5.250;2022-08-11T10:36:24;5.88;;;5.38;;
16288;SDS011;26089;43.538;5.250;2022-08-11T10:38:52;5.53;;;4.57;;
16288;SDS011;26089;43.538;5.250;2022-08-11T10:41:19;6.55;;;5.28;;
16288;SDS011;26089;43.538;5.250;2022-08-11T10:44:04;5.18;;;4.78;;
16288;SDS011;26089;43.538;5.250;2022-08-11T10:46:34;4.93;;;4.63;;
16288;SDS011;26089;43.538;5.250;2022-08-11T10:49:20;5.68;;;5.10;;
16288;SDS011;26089;43.538;5.250;2022-08-11T10:51:49;5.70;;;5.20;;
16288;SDS011;26089;43.538;5.250;2022-08-11T10:54:34;5.43;;;4.93;;
16288;SDS011;26089;43.538;5.250;2022-08-11T10:57:19;6.20;;;5.63;;
16288;SDS011;26089;43.538;5.250;2022-08-11T11:00:06;5.80;;;5.30;;
16288;SDS011;26089;43.538;5.250;2022-08-11T11:02:40;5.38;;;4.88;;
16288;SDS011;26089;43.538;5.250;2022-08-11T11:05:09;5.75;;;5.35;;
16288;SDS011;26089;43.538;5.250;2022-08-11T11:07:42;5.57;;;5.03;;
16288;SDS011;26089;43.538;5.250;2022-08-11T11:10:17;5.68;;;5.28;;
16288;SDS011;26089;43.538;5.250;2022-08-11T11:12:45;6.18;;;5.68;;
16288;SDS011;26089;43.538;5.250;2022-08-11T11:15:34;6.32;;;5.82;;
16288;SDS011;26089;43.538;5.250;2022-08-11T11:18:21;6.53;;;5.82;;
16288;SDS011;26089;43.538;5.250;2022-08-11T11:20:53;7.28;;;5.68;;
16288;SDS011;26089;43.538;5.250;2022-08-11T11:23:24;6.55;;;6.00;;
16288;SDS011;26089;43.538;5.250;2022-08-11T11:26:20;6.70;;;6.20;;
16288;SDS011;26089;43.538;5.250;2022-08-11T11:32:08;7.13;;;6.25;;
16288;SDS011;26089;43.538;5.250;2022-08-11T11:37:56;7.07;;;6.28;;
16288;SDS011;26089;43.538;5.250;2022-08-11T11:40:25;6.43;;;5.90;;
16288;SDS011;26089;43.538;5.250;2022-08-11T11:42:54;6.63;;;5.85;;
16288;SDS011;26089;43.538;5.250;2022-08-11T11:45:23;6.50;;;5.78;;
16288;SDS011;26089;43.538;5.250;2022-08-11T11:47:51;7.57;;;6.13;;
16288;SDS011;26089;43.538;5.250;2022-08-11T11:50:23;6.68;;;5.70;;
16288;SDS011;26089;43.538;5.250;2022-08-11T11:52:52;6.35;;;5.90;;
16288;SDS011;26089;43.538;5.250;2022-08-11T11:55:22;6.45;;;5.85;;
16288;SDS011;26089;43.538;5.250;2022-08-11T11:57:50;10.82;;;6.43;;
16288;SDS011;26089;43.538;5.250;2022-08-11T12:00:50;6.20;;;5.60;;
16288;SDS011;26089;43.538;5.250;2022-08-11T12:03:35;6.28;;;5.47;;
16288;SDS011;26089;43.538;5.250;2022-08-11T12:06:03;5.88;;;5.38;;
16288;SDS011;26089;43.538;5.250;2022-08-11T12:08:33;5.88;;;5.28;;
16288;SDS011;26089;43.538;5.250;2022-08-11T12:11:04;6.53;;;5.22;;
16288;SDS011;26089;43.538;5.250;2022-08-11T12:13:51;6.15;;;5.60;;
16288;SDS011;26089;43.538;5.250;2022-08-11T12:16:19;5.65;;;5.15;;
16288;SDS011;26089;43.538;5.250;2022-08-11T12:18:48;6.00;;;5.43;;
16288;SDS011;26089;43.538;5.250;2022-08-11T12:21:18;6.07;;;5.53;;
16288;SDS011;26089;43.538;5.250;2022-08-11T12:23:46;5.90;;;5.35;;
16288;SDS011;26089;43.538;5.250;2022-08-11T12:26:33;5.85;;;5.07;;
16288;SDS011;26089;43.538;5.250;2022-08-11T12:29:18;5.20;;;4.80;;
16288;SDS011;26089;43.538;5.250;2022-08-11T12:31:51;5.75;;;5.20;;
16288;SDS011;26089;43.538;5.250;2022-08-11T12:34:19;5.93;;;4.72;;
16288;SDS011;26089;43.538;5.250;2022-08-11T12:36:49;6.25;;;5.00;;
16288;SDS011;26089;43.538;5.250;2022-08-11T12:39:22;8.40;;;5.38;;
16288;SDS011;26089;43.538;5.250;2022-08-11T12:42:13;8.23;;;5.28;;
16288;SDS011;26089;43.538;5.250;2022-08-11T12:44:59;6.10;;;5.28;;
16288;SDS011;26089;43.538;5.250;2022-08-11T12:47:45;8.68;;;4.43;;
16288;SDS011;26089;43.538;5.250;2022-08-11T12:50:32;6.32;;;4.30;;
16288;SDS011;26089;43.538;5.250;2022-08-11T12:53:19;6.22;;;4.60;;
16288;SDS011;26089;43.538;5.250;2022-08-11T12:55:50;11.85;;;5.30;;
16288;SDS011;26089;43.538;5.250;2022-08-11T12:58:38;7.32;;;4.90;;
16288;SDS011;26089;43.538;5.250;2022-08-11T13:01:08;8.27;;;5.22;;
16288;SDS011;26089;43.538;5.250;2022-08-11T13:03:53;8.27;;;4.82;;
16288;SDS011;26089;43.538;5.250;2022-08-11T13:06:39;8.15;;;5.10;;
16288;SDS011;26089;43.538;5.250;2022-08-11T13:09:07;5.72;;;5.22;;
16288;SDS011;26089;43.538;5.250;2022-08-11T13:11:36;5.15;;;4.75;;
16288;SDS011;26089;43.538;5.250;2022-08-11T13:14:23;5.20;;;4.80;;
16288;SDS011;26089;43.538;5.250;2022-08-11T13:16:51;8.07;;;5.00;;
16288;SDS011;26089;43.538;5.250;2022-08-11T13:19:36;7.72;;;5.32;;
16288;SDS011;26089;43.538;5.250;2022-08-11T13:22:03;5.88;;;5.22;;
16288;SDS011;26089;43.538;5.250;2022-08-11T13:24:31;8.63;;;5.10;;
16288;SDS011;26089;43.538;5.250;2022-08-11T13:26:59;6.70;;;5.63;;
16288;SDS011;26089;43.538;5.250;2022-08-11T13:29:28;6.35;;;5.28;;
16288;SDS011;26089;43.538;5.250;2022-08-11T13:31:56;7.80;;;5.53;;
16288;SDS011;26089;43.538;5.250;2022-08-11T13:34:25;9.00;;;5.82;;
16288;SDS011;26089;43.538;5.250;2022-08-11T13:36:56;8.23;;;5.45;;
16288;SDS011;26089;43.538;5.250;2022-08-11T13:39:26;7.13;;;5.15;;
16288;SDS011;26089;43.538;5.250;2022-08-11T13:41:55;5.15;;;4.68;;
16288;SDS011;26089;43.538;5.250;2022-08-11T13:44:24;5.05;;;4.65;;
16288;SDS011;26089;43.538;5.250;2022-08-11T13:46:56;6.55;;;4.63;;
16288;SDS011;26089;43.538;5.250;2022-08-11T13:49:26;7.18;;;4.70;;
16288;SDS011;26089;43.538;5.250;2022-08-11T13:51:54;5.45;;;4.70;;
16288;SDS011;26089;43.538;5.250;2022-08-11T13:54:23;6.10;;;4.93;;
16288;SDS011;26089;43.538;5.250;2022-08-11T13:56:53;5.78;;;4.75;;
16288;SDS011;26089;43.538;5.250;2022-08-11T13:59:22;6.13;;;4.72;;
16288;SDS011;26089;43.538;5.250;2022-08-11T14:01:52;5.65;;;4.80;;
16288;SDS011;26089;43.538;5.250;2022-08-11T14:04:27;5.50;;;5.03;;
16288;SDS011;26089;43.538;5.250;2022-08-11T14:06:57;5.07;;;4.50;;
16288;SDS011;26089;43.538;5.250;2022-08-11T14:09:29;6.45;;;4.82;;
16288;SDS011;26089;43.538;5.250;2022-08-11T14:12:02;6.55;;;5.03;;
16288;SDS011;26089;43.538;5.250;2022-08-11T14:14:55;5.60;;;5.10;;
16288;SDS011;26089;43.538;5.250;2022-08-11T14:17:26;4.97;;;4.63;;
16288;SDS011;26089;43.538;5.250;2022-08-11T14:19:58;6.28;;;4.82;;
16288;SDS011;26089;43.538;5.250;2022-08-11T14:22:30;5.03;;;4.55;;
16288;SDS011;26089;43.538;5.250;2022-08-11T14:24:57;5.55;;;4.57;;
16288;SDS011;26089;43.538;5.250;2022-08-11T14:27:24;4.93;;;4.63;;
16288;SDS011;26089;43.538;5.250;2022-08-11T14:29:55;5.97;;;4.78;;
16288;SDS011;26089;43.538;5.250;2022-08-11T14:32:23;5.30;;;4.90;;
16288;SDS011;26089;43.538;5.250;2022-08-11T14:34:51;5.18;;;4.68;;
16288;SDS011;26089;43.538;5.250;2022-08-11T14:37:20;5.10;;;4.70;;
16288;SDS011;26089;43.538;5.250;2022-08-11T14:39:50;4.93;;;4.53;;
16288;SDS011;26089;43.538;5.250;2022-08-11T14:42:19;5.55;;;4.93;;
16288;SDS011;26089;43.538;5.250;2022-08-11T14:45:06;4.93;;;4.53;;
16288;SDS011;26089;43.538;5.250;2022-08-11T14:48:01;5.18;;;4.55;;
16288;SDS011;26089;43.538;5.250;2022-08-11T14:50:31;5.15;;;4.57;;
16288;SDS011;26089;43.538;5.250;2022-08-11T14:53:00;6.57;;;4.75;;
16288;SDS011;26089;43.538;5.250;2022-08-11T14:55:34;5.07;;;4.68;;
16288;SDS011;26089;43.538;5.250;2022-08-11T14:58:20;4.88;;;4.38;;
16288;SDS011;26089;43.538;5.250;2022-08-11T15:00:49;4.80;;;4.40;;
16288;SDS011;26089;43.538;5.250;2022-08-11T15:03:19;5.70;;;4.95;;
16288;SDS011;26089;43.538;5.250;2022-08-11T15:05:47;5.03;;;4.60;;
16288;SDS011;26089;43.538;5.250;2022-08-11T15:08:18;4.93;;;4.53;;
16288;SDS011;26089;43.538;5.250;2022-08-11T15:11:06;5.32;;;4.40;;
16288;SDS011;26089;43.538;5.250;2022-08-11T15:13:55;5.45;;;4.30;;
16288;SDS011;26089;43.538;5.250;2022-08-11T15:16:24;4.93;;;4.53;;
16288;SDS011;26089;43.538;5.250;2022-08-11T15:19:10;4.38;;;4.10;;
16288;SDS011;26089;43.538;5.250;2022-08-11T15:21:38;5.30;;;4.90;;
16288;SDS011;26089;43.538;5.250;2022-08-11T15:24:24;4.95;;;4.45;;
16288;SDS011;26089;43.538;5.250;2022-08-11T15:26:52;7.75;;;5.40;;
16288;SDS011;26089;43.538;5.250;2022-08-11T15:29:38;5.00;;;4.60;;
16288;SDS011;26089;43.538;5.250;2022-08-11T15:32:25;5.13;;;4.72;;
16288;SDS011;26089;43.538;5.250;2022-08-11T15:35:13;5.00;;;4.63;;
16288;SDS011;26089;43.538;5.250;2022-08-11T15:38:00;6.20;;;4.90;;
16288;SDS011;26089;43.538;5.250;2022-08-11T15:40:30;5.40;;;4.90;;
16288;SDS011;26089;43.538;5.250;2022-08-11T15:43:19;5.35;;;4.85;;
16288;SDS011;26089;43.538;5.250;2022-08-11T15:46:07;5.88;;;5.05;;
16288;SDS011;26089;43.538;5.250;2022-08-11T15:48:40;5.82;;;5.25;;
16288;SDS011;26089;43.538;5.250;2022-08-11T15:51:11;5.10;;;4.70;;
16288;SDS011;26089;43.538;5.250;2022-08-11T15:53:48;5.50;;;5.00;;
16288;SDS011;26089;43.538;5.250;2022-08-11T15:56:19;4.95;;;4.60;;
16288;SDS011;26089;43.538;5.250;2022-08-11T15:58:48;5.18;;;4.78;;
16288;SDS011;26089;43.538;5.250;2022-08-11T16:01:35;5.20;;;4.70;;
16288;SDS011;26089;43.538;5.250;2022-08-11T16:04:22;4.65;;;4.35;;
16288;SDS011;26089;43.538;5.250;2022-08-11T16:06:53;5.40;;;5.03;;
16288;SDS011;26089;43.538;5.250;2022-08-11T16:09:25;5.93;;;5.43;;
16288;SDS011;26089;43.538;5.250;2022-08-11T16:11:58;5.43;;;4.93;;
16288;SDS011;26089;43.538;5.250;2022-08-11T16:14:27;5.03;;;4.60;;
16288;SDS011;26089;43.538;5.250;2022-08-11T16:17:14;6.25;;;4.75;;
16288;SDS011;26089;43.538;5.250;2022-08-11T16:19:45;5.38;;;4.97;;
16288;SDS011;26089;43.538;5.250;2022-08-11T16:22:19;4.85;;;4.43;;
16288;SDS011;26089;43.538;5.250;2022-08-11T16:24:58;6.25;;;4.22;;
16288;SDS011;26089;43.538;5.250;2022-08-11T16:27:28;6.95;;;4.50;;
16288;SDS011;26089;43.538;5.250;2022-08-11T16:29:58;5.03;;;4.47;;
16288;SDS011;26089;43.538;5.250;2022-08-11T16:32:29;6.15;;;4.30;;
16288;SDS011;26089;43.538;5.250;2022-08-11T16:34:57;5.88;;;4.43;;
16288;SDS011;26089;43.538;5.250;2022-08-11T16:37:44;5.00;;;4.35;;